Pagrindinis puslapis
METAR-TAF:

METAR-TAF

Oro uostai :

Laoag, Filipinai

platuma: 18-11N, ilguma: 120-32E, Aukštis: 4 m

Dabartinis oras

Ataskaita buvo paskelbta 1 valandą ir 52 minutes, ne 18:00 UTC
Vėjas 4 kt iš Rytų/Šiaurės Rytų, svyruoja nuo Šiaurės/Šiaurės Rytų ir Rytų
Temperatūra 24°C
Drėgmė 78%
Slėgis 1012 hPa
Matomumas 10 km arba daugiau
Mažai debesys ne aukštis 1800 ft

METAR: RPLI 251800Z 06004KT 030V090 9999 FEW018 24/20 Q1012 NOSIG RMK A2988

Laikas: 03:52 (19:52 UTC)

Prognozė

Ataskaita buvo paskelbta 2 valandos ir 52 minutes, ne 17:00 UTC
Prognozė galioja nuo 25 metu 18 UTC su 26 metu 18 UTC
Vėjas 10 kt iš Šiaurės Rytų
Matomumas 10 km arba daugiau
Mažai debesys ne aukštis 1800 ft
Išsisklaidę debesys ne aukštis 29000 ft
Laikinai
nuo 26 metu 03 UTC su 26 metu 09 UTC
Vėjas 14 kt iš Šiaurės/Šiaurės Rytų su gūsio iki 24 kt

TAF: RPLI 251700Z 2518/2618 04010KT 9999 FEW018 SCT290 TEMPO 2603/2609 03014G24KT

Orai ataskaitas ir orų prognozės (METAR, TAF).

turimą stotys yra geltonos ir raudonos taškus žemėlapyje.

Perkelti pele per norėdami pamatyti stoties vardą.

Tada spustelėkite, norėdami matyti oro stebėjimo ir prognozės.

Norėdami pakeisti žemėlapį: spustelėkite ant žalios mygtukų su juodo kryžiaus žemyn,; žalią mygtuką su brūkšneliu, jei norite nutolinti; arba žalių rodyklių gretimoms žemėlapius.


METAR-TAF: